sensor_id;sensor_type;location;lat;lon;timestamp;temperature;humidity
69944;DHT22;57257;48.408;-4.498;2023-04-01T00:00:55;12.74;71.13
69944;DHT22;57257;48.408;-4.498;2023-04-01T00:03:22;12.75;71.10
69944;DHT22;57257;48.408;-4.498;2023-04-01T00:05:47;12.77;71.19
69944;DHT22;57257;48.408;-4.498;2023-04-01T00:08:13;12.77;71.26
69944;DHT22;57257;48.408;-4.498;2023-04-01T00:10:38;12.78;71.37
69944;DHT22;57257;48.408;-4.498;2023-04-01T00:13:04;12.83;71.30
69944;DHT22;57257;48.408;-4.498;2023-04-01T00:15:30;12.84;71.38
69944;DHT22;57257;48.408;-4.498;2023-04-01T00:17:55;12.87;71.45
69944;DHT22;57257;48.408;-4.498;2023-04-01T00:20:21;12.88;71.45
69944;DHT22;57257;48.408;-4.498;2023-04-01T00:22:47;12.85;71.31
69944;DHT22;57257;48.408;-4.498;2023-04-01T00:25:13;12.85;71.25
69944;DHT22;57257;48.408;-4.498;2023-04-01T00:27:39;12.84;71.20
69944;DHT22;57257;48.408;-4.498;2023-04-01T00:30:05;12.84;71.17
69944;DHT22;57257;48.408;-4.498;2023-04-01T00:32:30;12.84;71.00
69944;DHT22;57257;48.408;-4.498;2023-04-01T00:34:56;12.83;70.88
69944;DHT22;57257;48.408;-4.498;2023-04-01T00:37:24;12.81;70.93
69944;DHT22;57257;48.408;-4.498;2023-04-01T00:39:49;12.83;70.88
69944;DHT22;57257;48.408;-4.498;2023-04-01T00:42:15;12.84;70.96
69944;DHT22;57257;48.408;-4.498;2023-04-01T00:44:41;12.81;71.06
69944;DHT22;57257;48.408;-4.498;2023-04-01T00:47:07;12.83;71.16
69944;DHT22;57257;48.408;-4.498;2023-04-01T00:49:37;12.84;71.17
69944;DHT22;57257;48.408;-4.498;2023-04-01T00:52:07;12.84;71.29
69944;DHT22;57257;48.408;-4.498;2023-04-01T00:54:34;12.78;71.37
69944;DHT22;57257;48.408;-4.498;2023-04-01T00:57:11;12.80;71.31
69944;DHT22;57257;48.408;-4.498;2023-04-01T00:59:42;12.74;71.30
69944;DHT22;57257;48.408;-4.498;2023-04-01T01:02:11;12.71;71.30
69944;DHT22;57257;48.408;-4.498;2023-04-01T01:04:37;12.67;71.13
69944;DHT22;57257;48.408;-4.498;2023-04-01T01:12:45;12.58;71.26
69944;DHT22;57257;48.408;-4.498;2023-04-01T01:26:09;12.47;71.36
69944;DHT22;57257;48.408;-4.498;2023-04-01T01:31:16;12.44;71.34
69944;DHT22;57257;48.408;-4.498;2023-04-01T01:33:54;12.43;71.31
69944;DHT22;57257;48.408;-4.498;2023-04-01T01:36:26;12.41;71.31
69944;DHT22;57257;48.408;-4.498;2023-04-01T01:38:54;12.43;71.37
69944;DHT22;57257;48.408;-4.498;2023-04-01T01:41:22;12.41;71.42
69944;DHT22;57257;48.408;-4.498;2023-04-01T01:43:51;12.43;71.31
69944;DHT22;57257;48.408;-4.498;2023-04-01T01:46:21;12.45;71.27
69944;DHT22;57257;48.408;-4.498;2023-04-01T01:48:49;12.43;71.32
69944;DHT22;57257;48.408;-4.498;2023-04-01T01:51:17;12.45;71.38
69944;DHT22;57257;48.408;-4.498;2023-04-01T01:53:43;12.47;71.38
69944;DHT22;57257;48.408;-4.498;2023-04-01T01:56:10;12.50;71.30
69944;DHT22;57257;48.408;-4.498;2023-04-01T01:58:46;12.47;71.22
69944;DHT22;57257;48.408;-4.498;2023-04-01T02:01:35;12.48;71.33
69944;DHT22;57257;48.408;-4.498;2023-04-01T02:04:03;12.50;71.35
69944;DHT22;57257;48.408;-4.498;2023-04-01T02:06:34;12.50;71.32
69944;DHT22;57257;48.408;-4.498;2023-04-01T02:09:04;12.47;71.51
69944;DHT22;57257;48.408;-4.498;2023-04-01T02:11:34;12.53;71.45
69944;DHT22;57257;48.408;-4.498;2023-04-01T02:14:10;12.51;71.51
69944;DHT22;57257;48.408;-4.498;2023-04-01T02:17:02;12.53;71.52
69944;DHT22;57257;48.408;-4.498;2023-04-01T02:19:35;12.51;71.58
69944;DHT22;57257;48.408;-4.498;2023-04-01T02:22:03;12.51;71.67
69944;DHT22;57257;48.408;-4.498;2023-04-01T02:24:31;12.51;71.76
69944;DHT22;57257;48.408;-4.498;2023-04-01T02:26:58;12.48;71.73
69944;DHT22;57257;48.408;-4.498;2023-04-01T02:29:26;12.47;71.63
69944;DHT22;57257;48.408;-4.498;2023-04-01T02:31:53;12.51;71.45
69944;DHT22;57257;48.408;-4.498;2023-04-01T02:34:21;12.45;71.40
69944;DHT22;57257;48.408;-4.498;2023-04-01T02:36:49;12.41;71.47
69944;DHT22;57257;48.408;-4.498;2023-04-01T02:39:15;12.33;71.41
69944;DHT22;57257;48.408;-4.498;2023-04-01T02:41:42;12.32;71.29
69944;DHT22;57257;48.408;-4.498;2023-04-01T02:44:10;12.33;71.38
69944;DHT22;57257;48.408;-4.498;2023-04-01T02:46:36;12.34;71.32
69944;DHT22;57257;48.408;-4.498;2023-04-01T02:49:01;12.33;71.36
69944;DHT22;57257;48.408;-4.498;2023-04-01T02:51:27;12.34;71.34
69944;DHT22;57257;48.408;-4.498;2023-04-01T02:53:52;12.33;71.24
69944;DHT22;57257;48.408;-4.498;2023-04-01T02:56:18;12.34;71.32
69944;DHT22;57257;48.408;-4.498;2023-04-01T02:58:45;12.30;71.39
69944;DHT22;57257;48.408;-4.498;2023-04-01T03:01:11;12.32;71.47
69944;DHT22;57257;48.408;-4.498;2023-04-01T03:03:36;12.30;71.34
69944;DHT22;57257;48.408;-4.498;2023-04-01T03:06:10;12.32;71.36
69944;DHT22;57257;48.408;-4.498;2023-04-01T03:08:36;12.33;71.19
69944;DHT22;57257;48.408;-4.498;2023-04-01T03:11:02;12.27;71.19
69944;DHT22;57257;48.408;-4.498;2023-04-01T03:13:27;12.29;71.30
69944;DHT22;57257;48.408;-4.498;2023-04-01T03:15:53;12.27;71.24
69944;DHT22;57257;48.408;-4.498;2023-04-01T03:18:19;12.26;71.17
69944;DHT22;57257;48.408;-4.498;2023-04-01T03:20:45;12.24;71.15
69944;DHT22;57257;48.408;-4.498;2023-04-01T03:23:10;12.26;71.15
69944;DHT22;57257;48.408;-4.498;2023-04-01T03:25:36;12.23;71.11
69944;DHT22;57257;48.408;-4.498;2023-04-01T03:28:02;12.23;71.04
69944;DHT22;57257;48.408;-4.498;2023-04-01T03:30:27;12.24;71.13
69944;DHT22;57257;48.408;-4.498;2023-04-01T03:32:55;12.26;71.12
69944;DHT22;57257;48.408;-4.498;2023-04-01T03:35:20;12.27;71.03
69944;DHT22;57257;48.408;-4.498;2023-04-01T03:37:46;12.26;71.13
69944;DHT22;57257;48.408;-4.498;2023-04-01T03:40:12;12.26;71.23
69944;DHT22;57257;48.408;-4.498;2023-04-01T03:42:37;12.29;71.08
69944;DHT22;57257;48.408;-4.498;2023-04-01T03:45:03;12.26;71.17
69944;DHT22;57257;48.408;-4.498;2023-04-01T03:47:29;12.26;71.16
69944;DHT22;57257;48.408;-4.498;2023-04-01T03:49:55;12.23;71.10
69944;DHT22;57257;48.408;-4.498;2023-04-01T03:52:21;12.23;71.18
69944;DHT22;57257;48.408;-4.498;2023-04-01T03:54:46;12.22;71.18
69944;DHT22;57257;48.408;-4.498;2023-04-01T03:57:12;12.19;71.06
69944;DHT22;57257;48.408;-4.498;2023-04-01T03:59:37;12.17;71.04
69944;DHT22;57257;48.408;-4.498;2023-04-01T04:02:03;12.16;71.00
69944;DHT22;57257;48.408;-4.498;2023-04-01T04:04:28;12.14;71.01
69944;DHT22;57257;48.408;-4.498;2023-04-01T04:06:55;12.10;70.92
69944;DHT22;57257;48.408;-4.498;2023-04-01T04:09:20;12.07;70.97
69944;DHT22;57257;48.408;-4.498;2023-04-01T04:11:46;12.10;70.96
69944;DHT22;57257;48.408;-4.498;2023-04-01T04:14:11;12.06;70.95
69944;DHT22;57257;48.408;-4.498;2023-04-01T04:16:37;12.06;70.95
69944;DHT22;57257;48.408;-4.498;2023-04-01T04:19:03;12.06;70.96
69944;DHT22;57257;48.408;-4.498;2023-04-01T04:21:28;12.03;70.98
69944;DHT22;57257;48.408;-4.498;2023-04-01T04:23:54;12.07;71.06
69944;DHT22;57257;48.408;-4.498;2023-04-01T04:26:19;12.10;71.11
69944;DHT22;57257;48.408;-4.498;2023-04-01T04:28:45;12.13;70.99
69944;DHT22;57257;48.408;-4.498;2023-04-01T04:31:10;12.12;70.93
69944;DHT22;57257;48.408;-4.498;2023-04-01T04:33:36;12.10;71.10
69944;DHT22;57257;48.408;-4.498;2023-04-01T04:36:03;12.14;71.17
69944;DHT22;57257;48.408;-4.498;2023-04-01T04:38:28;12.17;71.21
69944;DHT22;57257;48.408;-4.498;2023-04-01T04:40:54;12.17;71.20
69944;DHT22;57257;48.408;-4.498;2023-04-01T04:43:20;12.16;71.15
69944;DHT22;57257;48.408;-4.498;2023-04-01T04:45:46;12.14;71.17
69944;DHT22;57257;48.408;-4.498;2023-04-01T04:48:13;12.14;71.18
69944;DHT22;57257;48.408;-4.498;2023-04-01T04:50:43;12.13;71.26
69944;DHT22;57257;48.408;-4.498;2023-04-01T04:53:12;12.10;71.24
69944;DHT22;57257;48.408;-4.498;2023-04-01T04:55:42;12.10;71.21
69944;DHT22;57257;48.408;-4.498;2023-04-01T04:58:08;12.09;71.22
69944;DHT22;57257;48.408;-4.498;2023-04-01T05:00:33;12.06;71.17
69944;DHT22;57257;48.408;-4.498;2023-04-01T05:02:58;12.00;71.19
69944;DHT22;57257;48.408;-4.498;2023-04-01T05:05:24;11.99;71.17
69944;DHT22;57257;48.408;-4.498;2023-04-01T05:07:50;11.96;71.23
69944;DHT22;57257;48.408;-4.498;2023-04-01T05:10:15;11.94;71.26
69944;DHT22;57257;48.408;-4.498;2023-04-01T05:12:41;11.90;71.28
69944;DHT22;57257;48.408;-4.498;2023-04-01T05:15:07;11.92;71.36
69944;DHT22;57257;48.408;-4.498;2023-04-01T05:17:32;11.89;71.45
69944;DHT22;57257;48.408;-4.498;2023-04-01T05:19:58;11.87;71.55
69944;DHT22;57257;48.408;-4.498;2023-04-01T05:22:24;11.92;71.60
69944;DHT22;57257;48.408;-4.498;2023-04-01T05:24:49;11.93;71.65
69944;DHT22;57257;48.408;-4.498;2023-04-01T05:27:15;11.96;71.68
69944;DHT22;57257;48.408;-4.498;2023-04-01T05:29:40;11.99;71.61
69944;DHT22;57257;48.408;-4.498;2023-04-01T05:32:06;11.97;71.54
69944;DHT22;57257;48.408;-4.498;2023-04-01T05:34:31;12.02;71.48
69944;DHT22;57257;48.408;-4.498;2023-04-01T05:36:57;11.99;71.40
69944;DHT22;57257;48.408;-4.498;2023-04-01T05:39:22;12.00;71.46
69944;DHT22;57257;48.408;-4.498;2023-04-01T05:41:48;12.02;71.40
69944;DHT22;57257;48.408;-4.498;2023-04-01T05:44:14;11.94;71.48
69944;DHT22;57257;48.408;-4.498;2023-04-01T05:46:39;11.94;71.57
69944;DHT22;57257;48.408;-4.498;2023-04-01T05:49:05;11.94;71.61
69944;DHT22;57257;48.408;-4.498;2023-04-01T05:51:30;11.93;71.63
69944;DHT22;57257;48.408;-4.498;2023-04-01T05:53:56;11.92;71.59
69944;DHT22;57257;48.408;-4.498;2023-04-01T05:56:21;11.89;71.49
69944;DHT22;57257;48.408;-4.498;2023-04-01T05:58:50;11.87;71.52
69944;DHT22;57257;48.408;-4.498;2023-04-01T06:01:16;11.83;71.48
69944;DHT22;57257;48.408;-4.498;2023-04-01T06:03:42;11.80;71.59
69944;DHT22;57257;48.408;-4.498;2023-04-01T06:06:26;11.83;71.58
69944;DHT22;57257;48.408;-4.498;2023-04-01T06:08:53;11.85;71.68
69944;DHT22;57257;48.408;-4.498;2023-04-01T06:14:17;11.89;71.77
69944;DHT22;57257;48.408;-4.498;2023-04-01T06:25:21;11.86;72.22
69944;DHT22;57257;48.408;-4.498;2023-04-01T06:28:05;11.85;72.36
69944;DHT22;57257;48.408;-4.498;2023-04-01T06:33:37;11.85;72.43
69944;DHT22;57257;48.408;-4.498;2023-04-01T06:36:12;11.83;72.36
69944;DHT22;57257;48.408;-4.498;2023-04-01T06:38:53;11.80;72.12
69944;DHT22;57257;48.408;-4.498;2023-04-01T06:55:02;11.89;72.18
69944;DHT22;57257;48.408;-4.498;2023-04-01T06:57:41;11.99;72.22
69944;DHT22;57257;48.408;-4.498;2023-04-01T07:00:28;12.22;72.41
69944;DHT22;57257;48.408;-4.498;2023-04-01T07:03:10;12.45;72.07
69944;DHT22;57257;48.408;-4.498;2023-04-01T07:05:41;12.74;71.76
69944;DHT22;57257;48.408;-4.498;2023-04-01T07:08:15;12.99;71.23
69944;DHT22;57257;48.408;-4.498;2023-04-01T07:11:49;13.18;70.82
69944;DHT22;57257;48.408;-4.498;2023-04-01T07:13:53;13.26;69.95
69944;DHT22;57257;48.408;-4.498;2023-04-01T07:19:19;12.94;69.76
69944;DHT22;57257;48.408;-4.498;2023-04-01T07:21:49;12.84;69.78
69944;DHT22;57257;48.408;-4.498;2023-04-01T07:24:24;12.77;70.00
69944;DHT22;57257;48.408;-4.498;2023-04-01T07:26:54;12.78;69.95
69944;DHT22;57257;48.408;-4.498;2023-04-01T07:29:21;12.81;69.77
69944;DHT22;57257;48.408;-4.498;2023-04-01T07:34:34;12.83;69.27
69944;DHT22;57257;48.408;-4.498;2023-04-01T07:37:06;12.80;68.77
69944;DHT22;57257;48.408;-4.498;2023-04-01T07:39:59;12.75;68.37
69944;DHT22;57257;48.408;-4.498;2023-04-01T07:46:07;12.65;68.17
69944;DHT22;57257;48.408;-4.498;2023-04-01T07:49:01;12.57;67.85
69944;DHT22;57257;48.408;-4.498;2023-04-01T07:51:35;12.54;67.98
69944;DHT22;57257;48.408;-4.498;2023-04-01T07:54:46;12.54;68.11
69944;DHT22;57257;48.408;-4.498;2023-04-01T08:00:27;13.29;68.16
69944;DHT22;57257;48.408;-4.498;2023-04-01T08:03:28;13.65;67.36
69944;DHT22;57257;48.408;-4.498;2023-04-01T08:06:08;13.97;66.99
69944;DHT22;57257;48.408;-4.498;2023-04-01T08:11:23;14.09;65.62
69944;DHT22;57257;48.408;-4.498;2023-04-01T08:22:33;14.42;63.40
69944;DHT22;57257;48.408;-4.498;2023-04-01T08:25:04;14.55;63.48
69944;DHT22;57257;48.408;-4.498;2023-04-01T08:27:46;14.60;63.09
69944;DHT22;57257;48.408;-4.498;2023-04-01T08:30:22;14.61;62.78
69944;DHT22;57257;48.408;-4.498;2023-04-01T08:32:59;14.64;62.34
69944;DHT22;57257;48.408;-4.498;2023-04-01T08:37:55;14.77;61.54
69944;DHT22;57257;48.408;-4.498;2023-04-01T08:45:56;14.40;61.45
69944;DHT22;57257;48.408;-4.498;2023-04-01T08:51:26;14.72;61.60
69944;DHT22;57257;48.408;-4.498;2023-04-01T08:56:50;14.95;59.39
69944;DHT22;57257;48.408;-4.498;2023-04-01T08:59:47;15.10;58.25
69944;DHT22;57257;48.408;-4.498;2023-04-01T09:08:08;15.08;59.28
69944;DHT22;57257;48.408;-4.498;2023-04-01T09:14:06;14.98;58.52
69944;DHT22;57257;48.408;-4.498;2023-04-01T09:27:21;14.14;61.30
69944;DHT22;57257;48.408;-4.498;2023-04-01T09:33:10;13.66;62.78
69944;DHT22;57257;48.408;-4.498;2023-04-01T09:35:47;13.53;63.20
69944;DHT22;57257;48.408;-4.498;2023-04-01T09:38:38;13.46;63.36
69944;DHT22;57257;48.408;-4.498;2023-04-01T09:41:32;13.49;63.66
69944;DHT22;57257;48.408;-4.498;2023-04-01T10:19:07;14.69;60.47
69944;DHT22;57257;48.408;-4.498;2023-04-01T10:21:56;14.58;60.51
69944;DHT22;57257;48.408;-4.498;2023-04-01T10:49:41;15.15;57.42
69944;DHT22;57257;48.408;-4.498;2023-04-01T11:38:19;16.06;56.98
69944;DHT22;57257;48.408;-4.498;2023-04-01T11:40:58;15.91;56.08
69944;DHT22;57257;48.408;-4.498;2023-04-01T11:43:32;15.82;56.88
69944;DHT22;57257;48.408;-4.498;2023-04-01T11:46:15;15.87;57.39
69944;DHT22;57257;48.408;-4.498;2023-04-01T11:54:06;16.07;55.51
69944;DHT22;57257;48.408;-4.498;2023-04-01T12:05:01;15.30;59.86
69944;DHT22;57257;48.408;-4.498;2023-04-01T12:10:41;15.38;60.04
69944;DHT22;57257;48.408;-4.498;2023-04-01T12:18:57;16.01;60.25
69944;DHT22;57257;48.408;-4.498;2023-04-01T12:21:37;16.24;60.29
69944;DHT22;57257;48.408;-4.498;2023-04-01T12:30:18;16.17;57.58
69944;DHT22;57257;48.408;-4.498;2023-04-01T12:38:26;15.89;56.66
69944;DHT22;57257;48.408;-4.498;2023-04-01T12:41:17;15.84;56.97
69944;DHT22;57257;48.408;-4.498;2023-04-01T12:43:52;15.82;57.30
69944;DHT22;57257;48.408;-4.498;2023-04-01T12:46:27;16.01;57.35
69944;DHT22;57257;48.408;-4.498;2023-04-01T12:57:14;16.06;56.42
69944;DHT22;57257;48.408;-4.498;2023-04-01T12:59:58;16.27;56.61
69944;DHT22;57257;48.408;-4.498;2023-04-01T13:02:45;16.29;56.74
69944;DHT22;57257;48.408;-4.498;2023-04-01T13:13:15;16.54;56.30
69944;DHT22;57257;48.408;-4.498;2023-04-01T13:18:57;16.51;55.73
69944;DHT22;57257;48.408;-4.498;2023-04-01T13:29:38;16.20;57.19
69944;DHT22;57257;48.408;-4.498;2023-04-01T13:32:22;16.47;57.72
69944;DHT22;57257;48.408;-4.498;2023-04-01T13:43:38;16.44;57.20
69944;DHT22;57257;48.408;-4.498;2023-04-01T14:01:54;16.92;55.50
69944;DHT22;57257;48.408;-4.498;2023-04-01T14:10:19;16.79;56.70
69944;DHT22;57257;48.408;-4.498;2023-04-01T14:47:54;17.47;57.37
69944;DHT22;57257;48.408;-4.498;2023-04-01T14:50:24;18.05;56.81
69944;DHT22;57257;48.408;-4.498;2023-04-01T14:52:56;18.15;55.93
69944;DHT22;57257;48.408;-4.498;2023-04-01T14:58:13;17.64;55.58
69944;DHT22;57257;48.408;-4.498;2023-04-01T15:00:48;17.53;56.09
69944;DHT22;57257;48.408;-4.498;2023-04-01T15:06:43;17.50;56.97
69944;DHT22;57257;48.408;-4.498;2023-04-01T15:09:23;18.24;56.15
69944;DHT22;57257;48.408;-4.498;2023-04-01T15:12:46;18.47;53.82
69944;DHT22;57257;48.408;-4.498;2023-04-01T15:14:55;18.09;53.46
69944;DHT22;57257;48.408;-4.498;2023-04-01T15:39:28;21.13;51.74
69944;DHT22;57257;48.408;-4.498;2023-04-01T15:53:04;20.29;50.46
69944;DHT22;57257;48.408;-4.498;2023-04-01T16:01:26;20.72;48.61
69944;DHT22;57257;48.408;-4.498;2023-04-01T16:04:17;20.68;50.55
69944;DHT22;57257;48.408;-4.498;2023-04-01T16:09:43;19.97;50.40
69944;DHT22;57257;48.408;-4.498;2023-04-01T16:12:15;19.46;51.04
69944;DHT22;57257;48.408;-4.498;2023-04-01T16:20:18;18.07;53.69
69944;DHT22;57257;48.408;-4.498;2023-04-01T16:22:54;17.78;54.19
69944;DHT22;57257;48.408;-4.498;2023-04-01T16:25:45;17.54;55.21
69944;DHT22;57257;48.408;-4.498;2023-04-01T16:31:07;16.91;57.23
69944;DHT22;57257;48.408;-4.498;2023-04-01T16:41:42;16.40;59.97
69944;DHT22;57257;48.408;-4.498;2023-04-01T16:44:22;16.35;60.07
69944;DHT22;57257;48.408;-4.498;2023-04-01T16:46:55;16.28;59.60
69944;DHT22;57257;48.408;-4.498;2023-04-01T16:51:57;16.25;59.22
69944;DHT22;57257;48.408;-4.498;2023-04-01T16:54:40;16.13;58.88
69944;DHT22;57257;48.408;-4.498;2023-04-01T17:02:10;15.59;60.58
69944;DHT22;57257;48.408;-4.498;2023-04-01T17:05:01;15.36;60.95
69944;DHT22;57257;48.408;-4.498;2023-04-01T17:10:14;15.16;61.85
69944;DHT22;57257;48.408;-4.498;2023-04-01T17:12:48;15.15;61.98
69944;DHT22;57257;48.408;-4.498;2023-04-01T17:23:26;14.98;62.92
69944;DHT22;57257;48.408;-4.498;2023-04-01T17:28:26;14.84;63.54
69944;DHT22;57257;48.408;-4.498;2023-04-01T17:34:01;14.71;63.96
69944;DHT22;57257;48.408;-4.498;2023-04-01T17:39:35;14.58;64.24
69944;DHT22;57257;48.408;-4.498;2023-04-01T17:42:07;14.52;64.54
69944;DHT22;57257;48.408;-4.498;2023-04-01T17:49:39;14.40;64.78
69944;DHT22;57257;48.408;-4.498;2023-04-01T17:52:39;14.38;64.94
69944;DHT22;57257;48.408;-4.498;2023-04-01T18:06:04;14.20;66.22
69944;DHT22;57257;48.408;-4.498;2023-04-01T18:25:05;13.67;68.04
69944;DHT22;57257;48.408;-4.498;2023-04-01T18:30:15;13.49;68.60
69944;DHT22;57257;48.408;-4.498;2023-04-01T18:32:49;13.45;68.79
69944;DHT22;57257;48.408;-4.498;2023-04-01T18:35:45;13.42;68.87
69944;DHT22;57257;48.408;-4.498;2023-04-01T18:38:15;13.39;69.11
69944;DHT22;57257;48.408;-4.498;2023-04-01T18:46:45;13.29;69.56
69944;DHT22;57257;48.408;-4.498;2023-04-01T18:49:30;13.22;69.68
69944;DHT22;57257;48.408;-4.498;2023-04-01T18:52:03;13.19;69.84
69944;DHT22;57257;48.408;-4.498;2023-04-01T18:54:41;13.19;69.90
69944;DHT22;57257;48.408;-4.498;2023-04-01T18:57:17;13.18;70.04
69944;DHT22;57257;48.408;-4.498;2023-04-01T18:59:51;13.15;70.16
69944;DHT22;57257;48.408;-4.498;2023-04-01T19:02:44;13.16;70.16
69944;DHT22;57257;48.408;-4.498;2023-04-01T19:05:18;13.18;70.27
69944;DHT22;57257;48.408;-4.498;2023-04-01T19:07:55;13.16;70.33
69944;DHT22;57257;48.408;-4.498;2023-04-01T19:18:53;13.04;70.66
69944;DHT22;57257;48.408;-4.498;2023-04-01T19:32:33;13.05;70.95
69944;DHT22;57257;48.408;-4.498;2023-04-01T19:35:19;13.07;70.95
69944;DHT22;57257;48.408;-4.498;2023-04-01T19:37:57;13.02;71.05
69944;DHT22;57257;48.408;-4.498;2023-04-01T19:40:47;13.07;71.13
69944;DHT22;57257;48.408;-4.498;2023-04-01T19:53:52;13.05;71.07
69944;DHT22;57257;48.408;-4.498;2023-04-01T19:56:33;13.02;71.00
69944;DHT22;57257;48.408;-4.498;2023-04-01T19:59:18;13.02;71.07
69944;DHT22;57257;48.408;-4.498;2023-04-01T20:02:00;13.04;71.00
69944;DHT22;57257;48.408;-4.498;2023-04-01T20:04:45;13.02;70.96
69944;DHT22;57257;48.408;-4.498;2023-04-01T20:07:30;13.04;71.02
69944;DHT22;57257;48.408;-4.498;2023-04-01T20:14:58;13.04;70.92
69944;DHT22;57257;48.408;-4.498;2023-04-01T20:19:58;13.05;70.95
69944;DHT22;57257;48.408;-4.498;2023-04-01T20:24:51;13.04;71.02
69944;DHT22;57257;48.408;-4.498;2023-04-01T20:27:22;13.05;71.11
69944;DHT22;57257;48.408;-4.498;2023-04-01T20:36:25;12.99;70.84
69944;DHT22;57257;48.408;-4.498;2023-04-01T20:39:10;12.94;70.88
69944;DHT22;57257;48.408;-4.498;2023-04-01T20:50:20;12.87;71.20
69944;DHT22;57257;48.408;-4.498;2023-04-01T20:53:07;12.87;71.24
69944;DHT22;57257;48.408;-4.498;2023-04-01T20:56:01;12.92;71.22
69944;DHT22;57257;48.408;-4.498;2023-04-01T21:09:37;12.87;71.24
69944;DHT22;57257;48.408;-4.498;2023-04-01T21:15:29;12.88;71.29
69944;DHT22;57257;48.408;-4.498;2023-04-01T21:18:17;12.87;71.15
69944;DHT22;57257;48.408;-4.498;2023-04-01T21:23:50;12.83;70.90
69944;DHT22;57257;48.408;-4.498;2023-04-01T21:27:00;12.85;70.86
69944;DHT22;57257;48.408;-4.498;2023-04-01T21:32:41;12.84;70.88
69944;DHT22;57257;48.408;-4.498;2023-04-01T21:40:56;12.81;70.97
69944;DHT22;57257;48.408;-4.498;2023-04-01T21:43:43;12.84;70.92
69944;DHT22;57257;48.408;-4.498;2023-04-01T21:52:10;12.85;71.05
69944;DHT22;57257;48.408;-4.498;2023-04-01T22:00:06;12.91;71.02
69944;DHT22;57257;48.408;-4.498;2023-04-01T22:05:39;12.92;71.05
69944;DHT22;57257;48.408;-4.498;2023-04-01T22:14:00;12.99;71.10
69944;DHT22;57257;48.408;-4.498;2023-04-01T22:27:35;12.98;70.84
69944;DHT22;57257;48.408;-4.498;2023-04-01T22:43:15;12.87;70.84
69944;DHT22;57257;48.408;-4.498;2023-04-01T22:49:29;12.81;70.86
69944;DHT22;57257;48.408;-4.498;2023-04-01T22:52:14;12.81;70.89
69944;DHT22;57257;48.408;-4.498;2023-04-01T22:54:45;12.81;70.88
69944;DHT22;57257;48.408;-4.498;2023-04-01T23:00:14;12.77;70.86
69944;DHT22;57257;48.408;-4.498;2023-04-01T23:02:47;12.77;70.87
69944;DHT22;57257;48.408;-4.498;2023-04-01T23:05:18;12.74;70.83
69944;DHT22;57257;48.408;-4.498;2023-04-01T23:08:38;12.71;70.82
69944;DHT22;57257;48.408;-4.498;2023-04-01T23:10:56;12.68;70.81
69944;DHT22;57257;48.408;-4.498;2023-04-01T23:13:32;12.67;70.88
69944;DHT22;57257;48.408;-4.498;2023-04-01T23:15:59;12.68;70.89
69944;DHT22;57257;48.408;-4.498;2023-04-01T23:28:43;12.71;71.04
69944;DHT22;57257;48.408;-4.498;2023-04-01T23:31:35;12.68;71.00
69944;DHT22;57257;48.408;-4.498;2023-04-01T23:36:42;12.71;71.03
69944;DHT22;57257;48.408;-4.498;2023-04-01T23:41:50;12.71;70.96
69944;DHT22;57257;48.408;-4.498;2023-04-01T23:44:16;12.69;70.98
69944;DHT22;57257;48.408;-4.498;2023-04-01T23:46:44;12.69;70.93
69944;DHT22;57257;48.408;-4.498;2023-04-01T23:49:17;12.67;70.97
69944;DHT22;57257;48.408;-4.498;2023-04-01T23:51:56;12.64;70.97
69944;DHT22;57257;48.408;-4.498;2023-04-01T23:54:24;12.64;70.95
69944;DHT22;57257;48.408;-4.498;2023-04-01T23:56:54;12.63;71.00
69944;DHT22;57257;48.408;-4.498;2023-04-01T23:59:30;12.65;71.01
